createdAt,value
2022-08-14T00:03:37.433Z,2.35
2022-08-14T00:08:42.065Z,2.65
2022-08-14T00:13:52.835Z,2.73
2022-08-14T00:19:05.504Z,2.67
2022-08-14T00:24:23.141Z,2.90
2022-08-14T00:29:40.115Z,2.50
2022-08-14T00:34:46.646Z,2.83
2022-08-14T00:39:49.998Z,2.30
2022-08-14T00:44:52.207Z,2.40
2022-08-14T00:49:57.311Z,2.35
2022-08-14T00:55:01.264Z,2.05
2022-08-14T01:00:07.774Z,2.57
2022-08-14T01:05:50.896Z,2.40
2022-08-14T01:10:52.285Z,2.20
2022-08-14T01:15:58.319Z,2.13
2022-08-14T01:21:05.916Z,1.98
2022-08-14T01:26:11.709Z,2.03
2022-08-14T01:31:16.673Z,1.77
2022-08-14T01:36:23.065Z,1.90
2022-08-14T01:41:29.791Z,1.70
2022-08-14T01:46:37.078Z,1.87
2022-08-14T01:51:39.519Z,1.42
2022-08-14T01:56:44.490Z,1.50
2022-08-14T02:01:59.182Z,1.67
2022-08-14T02:07:02.848Z,1.90
2022-08-14T02:12:09.062Z,1.30
2022-08-14T02:17:10.912Z,1.55
2022-08-14T02:22:13.063Z,1.80
2022-08-14T02:28:23.644Z,1.92
2022-08-14T02:32:38.702Z,1.50
2022-08-14T02:37:48.310Z,1.40
2022-08-14T02:42:55.316Z,1.15
2022-08-14T02:48:03.456Z,1.50
2022-08-14T02:53:05.385Z,1.17
2022-08-14T02:58:09.766Z,1.30
2022-08-14T03:03:23.311Z,1.25
2022-08-14T03:08:25.030Z,1.50
2022-08-14T03:13:27.405Z,1.55
2022-08-14T03:18:32.793Z,2.33
2022-08-14T03:23:38.181Z,1.02
2022-08-14T03:28:42.870Z,1.20
2022-08-14T03:33:44.739Z,1.27
2022-08-14T03:39:13.671Z,1.40
2022-08-14T03:45:28.012Z,1.30
2022-08-14T03:49:42.151Z,1.27
2022-08-14T03:54:44.463Z,1.10
2022-08-14T03:59:46.278Z,1.30
2022-08-14T04:04:47.998Z,1.40
2022-08-14T04:09:52.705Z,1.20
2022-08-14T04:14:54.610Z,1.30
2022-08-14T04:19:56.312Z,1.30
2022-08-14T04:25:02.203Z,1.33
2022-08-14T04:30:07.483Z,1.13
2022-08-14T04:35:10.515Z,1.40
2022-08-14T04:40:15.175Z,1.83
2022-08-14T04:45:17.546Z,1.60
2022-08-14T04:50:31.326Z,1.60
2022-08-14T04:55:46.070Z,1.90
2022-08-14T05:00:52.232Z,1.40
2022-08-14T05:05:57.213Z,1.20
2022-08-14T05:11:00.886Z,1.27
2022-08-14T05:16:04.412Z,1.20
2022-08-14T05:21:57.330Z,1.30
2022-08-14T05:26:31.291Z,1.25
2022-08-14T05:31:40.575Z,1.10
2022-08-14T05:36:42.593Z,1.20
2022-08-14T05:41:52.709Z,1.45
2022-08-14T05:46:55.923Z,1.07
2022-08-14T05:51:58.477Z,1.27
2022-08-14T05:57:00.180Z,1.35
2022-08-14T06:02:03.051Z,1.10
2022-08-14T06:07:07.642Z,1.10
2022-08-14T06:12:11.874Z,1.00
2022-08-14T06:17:15.772Z,1.20
2022-08-14T06:22:27.829Z,0.95
2022-08-14T06:27:36.213Z,1.15
2022-08-14T06:32:42.265Z,1.17
2022-08-14T06:37:58.833Z,0.90
2022-08-14T06:43:07.167Z,0.80
2022-08-14T06:48:17.293Z,0.80
2022-08-14T06:53:19.597Z,0.95
2022-08-14T06:58:28.686Z,1.10
2022-08-14T07:03:32.436Z,0.90
2022-08-14T07:08:37.991Z,0.80
2022-08-14T07:13:39.998Z,0.88
2022-08-14T07:18:41.869Z,1.10
2022-08-14T07:23:44.571Z,1.00
2022-08-14T07:28:46.838Z,0.83
2022-08-14T07:33:50.514Z,0.90
2022-08-14T07:38:52.942Z,0.70
2022-08-14T07:43:56.022Z,1.00
2022-08-14T07:48:59.611Z,0.73
2022-08-14T07:54:03.423Z,0.77
2022-08-14T07:59:05.249Z,0.70
2022-08-14T08:04:16.780Z,1.00
2022-08-14T08:09:31.997Z,0.73
2022-08-14T08:14:34.633Z,0.80
2022-08-14T08:19:56.324Z,0.60
2022-08-14T08:24:58.102Z,0.70
2022-08-14T08:30:05.469Z,0.80
2022-08-14T08:35:23.305Z,0.80
2022-08-14T08:40:30.932Z,0.60
2022-08-14T08:45:36.061Z,0.90
2022-08-14T08:55:45.607Z,1.20
2022-08-14T09:00:56.354Z,0.90
2022-08-14T09:06:04.272Z,1.38
2022-08-14T09:11:25.958Z,1.67
2022-08-14T09:16:28.836Z,1.23
2022-08-14T09:21:31.918Z,1.27
2022-08-14T09:26:34.372Z,1.40
2022-08-14T09:31:42.896Z,1.35
2022-08-14T09:37:19.229Z,1.20
2022-08-14T09:42:33.137Z,1.70
2022-08-14T09:47:53.891Z,2.10
2022-08-14T09:53:01.760Z,2.03
2022-08-14T09:58:19.577Z,1.60
2022-08-14T10:03:34.758Z,2.50
2022-08-14T10:08:44.540Z,2.60
2022-08-14T10:13:53.337Z,2.30
2022-08-14T10:19:13.252Z,2.30
2022-08-14T10:24:36.713Z,2.47
2022-08-14T10:29:39.290Z,2.20
2022-08-14T10:34:41.272Z,2.00
2022-08-14T10:40:05.653Z,2.67
2022-08-14T10:45:24.391Z,2.50
2022-08-14T10:50:36.210Z,3.03
2022-08-14T10:55:38.847Z,2.50
2022-08-14T11:00:56.594Z,3.42
2022-08-14T11:05:58.723Z,2.50
2022-08-14T11:11:03.378Z,1.95
2022-08-14T11:16:05.617Z,2.30
2022-08-14T11:21:10.593Z,2.17
2022-08-14T11:26:14.428Z,1.90
2022-08-14T11:31:22.165Z,1.40
2022-08-14T11:37:02.048Z,1.65
2022-08-14T11:41:55.792Z,1.10
2022-08-14T11:46:57.966Z,0.63
2022-08-14T11:52:00.342Z,1.07
2022-08-14T11:57:04.389Z,0.77
2022-08-14T12:02:39.040Z,0.80
2022-08-14T12:07:50.275Z,1.00
2022-08-14T12:12:52.019Z,0.73
2022-08-14T12:17:55.925Z,0.68
2022-08-14T12:22:58.000Z,0.50
2022-08-14T12:28:10.082Z,0.50
2022-08-14T12:33:33.515Z,0.55
2022-08-14T12:38:43.712Z,0.57
2022-08-14T12:43:49.595Z,0.45
2022-08-14T12:48:52.073Z,0.47
2022-08-14T12:53:56.575Z,0.50
2022-08-14T12:59:01.880Z,0.40
2022-08-14T13:04:09.981Z,0.25
2022-08-14T13:09:14.591Z,0.28
2022-08-14T13:14:26.423Z,0.20
2022-08-14T13:19:33.261Z,0.30
2022-08-14T13:24:37.492Z,0.47
2022-08-14T13:29:46.577Z,0.30
2022-08-14T13:34:49.438Z,0.40
2022-08-14T13:39:56.821Z,0.40
2022-08-14T13:45:01.651Z,0.45
2022-08-14T13:50:08.996Z,0.65
2022-08-14T13:55:13.342Z,0.50
2022-08-14T14:00:17.984Z,0.83
2022-08-14T14:05:24.079Z,0.30
2022-08-14T14:10:28.473Z,0.70
2022-08-14T14:15:33.813Z,0.30
2022-08-14T14:20:50.900Z,0.40
2022-08-14T14:25:57.381Z,0.57
2022-08-14T14:31:06.106Z,0.50
2022-08-14T14:36:11.784Z,0.47
2022-08-14T14:41:16.374Z,0.55
2022-08-14T14:46:19.178Z,0.88
2022-08-14T14:51:21.166Z,0.50
2022-08-14T14:56:50.917Z,0.43
2022-08-14T15:01:53.507Z,0.73
2022-08-14T15:06:56.787Z,0.52
2022-08-14T15:11:58.494Z,0.40
2022-08-14T15:17:00.491Z,0.60
2022-08-14T15:22:02.751Z,0.50
2022-08-14T15:27:04.598Z,0.60
2022-08-14T15:32:08.745Z,0.80
2022-08-14T15:37:12.998Z,0.57
2022-08-14T15:42:18.253Z,0.60
2022-08-14T15:47:27.611Z,0.50
2022-08-14T15:52:32.483Z,0.70
2022-08-14T15:57:37.361Z,0.60
2022-08-14T16:02:39.224Z,0.50
2022-08-14T16:07:41.027Z,0.50
2022-08-14T16:12:47.359Z,0.75
2022-08-14T16:17:49.852Z,0.60
2022-08-14T16:22:58.064Z,0.70
2022-08-14T16:28:01.427Z,0.70
2022-08-14T16:33:04.473Z,0.80
2022-08-14T16:38:35.713Z,0.98
2022-08-14T16:43:29.760Z,0.53
2022-08-14T16:48:54.746Z,0.88
2022-08-14T16:53:53.361Z,1.37
2022-08-14T16:59:12.202Z,0.60
2022-08-14T17:04:24.652Z,0.73
2022-08-14T17:09:33.939Z,0.70
2022-08-14T17:15:20.368Z,0.80
2022-08-14T17:20:39.477Z,0.98
2022-08-14T17:25:49.401Z,0.80
2022-08-14T17:30:58.892Z,0.73
2022-08-14T17:36:21.640Z,1.00
2022-08-14T17:41:32.917Z,0.90
2022-08-14T17:46:43.565Z,0.88
2022-08-14T17:52:17.141Z,0.88
2022-08-14T17:57:23.807Z,0.70
2022-08-14T18:02:31.499Z,0.85
2022-08-14T18:08:00.450Z,1.00
2022-08-14T18:12:56.100Z,1.03
2022-08-14T18:18:00.305Z,1.00
2022-08-14T18:23:03.536Z,0.90
2022-08-14T18:28:18.383Z,0.90
2022-08-14T18:33:35.645Z,1.13
2022-08-14T18:38:55.426Z,1.38
2022-08-14T18:44:01.972Z,0.90
2022-08-14T18:49:14.542Z,1.00
2022-08-14T18:54:34.343Z,1.20
2022-08-14T18:59:42.329Z,1.07
2022-08-14T19:04:45.074Z,1.40
2022-08-14T19:09:58.780Z,1.30
2022-08-14T19:15:08.557Z,1.10
2022-08-14T19:20:11.428Z,1.27
2022-08-14T19:25:51.586Z,1.70
2022-08-14T19:31:22.760Z,1.35
2022-08-14T19:36:29.111Z,1.67
2022-08-14T19:41:41.206Z,1.75
2022-08-14T19:47:01.781Z,1.58
2022-08-14T19:52:17.544Z,1.95
2022-08-14T19:57:28.946Z,2.45
2022-08-14T20:02:31.099Z,2.63
2022-08-14T20:08:00.202Z,2.45
2022-08-14T20:13:10.063Z,2.40
2022-08-14T20:18:22.176Z,2.50
2022-08-14T20:23:38.618Z,2.10
2022-08-14T20:28:51.290Z,2.10
2022-08-14T20:34:35.673Z,2.57
2022-08-14T20:39:44.971Z,2.58
2022-08-14T20:44:46.949Z,2.30
2022-08-14T20:50:20.232Z,1.95
2022-08-14T20:55:28.871Z,2.42
2022-08-14T21:00:35.528Z,2.72
2022-08-14T21:05:39.205Z,3.10
2022-08-14T21:10:49.751Z,3.43
2022-08-14T21:15:56.662Z,3.70
2022-08-14T21:21:06.771Z,3.38
2022-08-14T21:26:08.690Z,4.27
2022-08-14T21:31:11.562Z,3.38
2022-08-14T21:36:21.673Z,2.95
2022-08-14T21:41:41.762Z,3.27
2022-08-14T21:46:54.004Z,3.65
2022-08-14T21:52:51.114Z,3.05
2022-08-14T21:57:55.956Z,3.20
2022-08-14T22:02:45.236Z,2.83
2022-08-14T22:07:54.147Z,4.10
2022-08-14T22:13:00.680Z,3.50
2022-08-14T22:18:03.323Z,3.08
2022-08-14T22:23:10.016Z,3.72
2022-08-14T22:28:22.487Z,3.97
2022-08-14T22:33:30.845Z,3.50
2022-08-14T22:38:37.127Z,3.25
2022-08-14T22:43:40.758Z,3.30
2022-08-14T22:48:44.433Z,3.70
2022-08-14T22:53:48.700Z,3.53
2022-08-14T22:58:55.064Z,3.65
2022-08-14T23:03:59.623Z,3.40
2022-08-14T23:09:02.147Z,3.70
2022-08-14T23:14:26.835Z,3.53
2022-08-14T23:19:34.856Z,3.70
2022-08-14T23:24:37.006Z,3.58
2022-08-14T23:29:44.494Z,4.00
2022-08-14T23:34:48.094Z,4.20
2022-08-14T23:39:53.199Z,3.83
2022-08-14T23:44:55.040Z,3.47
2022-08-14T23:50:03.253Z,3.72
2022-08-14T23:55:11.448Z,3.80
